createdAt,value
2022-08-12T00:00:35.507Z,64.66
2022-08-12T00:03:21.257Z,64.54
2022-08-12T00:06:07.682Z,64.63
2022-08-12T00:08:55.366Z,64.88
2022-08-12T00:11:41.870Z,64.86
2022-08-12T00:14:27.146Z,64.83
2022-08-12T00:17:12.539Z,64.89
2022-08-12T00:19:57.816Z,64.96
2022-08-12T00:22:43.118Z,65.11
2022-08-12T00:25:51.202Z,65.00
2022-08-12T00:28:33.894Z,65.30
2022-08-12T00:31:19.931Z,65.15
2022-08-12T00:34:05.264Z,65.54
2022-08-12T00:36:50.736Z,65.24
2022-08-12T00:39:36.411Z,65.75
2022-08-12T00:42:12.461Z,66.14
2022-08-12T00:44:42.641Z,66.33
2022-08-12T00:47:24.108Z,67.24
2022-08-12T00:49:54.000Z,66.81
2022-08-12T00:52:21.439Z,67.26
2022-08-12T00:54:57.507Z,67.17
2022-08-12T00:57:29.912Z,67.40
2022-08-12T01:00:00.033Z,68.25
2022-08-12T01:02:29.138Z,68.36
2022-08-12T01:05:20.511Z,68.05
2022-08-12T01:08:07.181Z,68.40
2022-08-12T01:10:55.167Z,68.55
2022-08-12T01:13:22.268Z,68.81
2022-08-12T01:15:54.397Z,69.40
2022-08-12T01:18:23.413Z,69.33
2022-08-12T01:21:03.565Z,69.13
2022-08-12T01:24:29.532Z,69.37
2022-08-12T01:26:53.613Z,69.82
2022-08-12T01:29:26.277Z,69.85
2022-08-12T01:31:59.524Z,69.88
2022-08-12T01:34:37.533Z,69.90
2022-08-12T01:37:07.575Z,69.73
2022-08-12T01:40:33.931Z,70.92
2022-08-12T01:42:48.060Z,70.72
2022-08-12T01:45:17.395Z,71.53
2022-08-12T01:48:09.819Z,70.67
2022-08-12T01:50:49.788Z,71.32
2022-08-12T01:53:18.232Z,71.67
2022-08-12T01:55:47.433Z,71.82
2022-08-12T01:58:50.275Z,71.39
2022-08-12T02:01:20.427Z,71.78
2022-08-12T02:04:29.670Z,72.16
2022-08-12T02:07:22.653Z,72.72
2022-08-12T02:11:17.306Z,73.29
2022-08-12T02:14:00.179Z,73.41
2022-08-12T02:16:46.780Z,73.25
2022-08-12T02:19:43.127Z,73.86
2022-08-12T02:22:38.277Z,73.59
2022-08-12T02:25:17.075Z,73.74
2022-08-12T02:27:52.277Z,73.33
2022-08-12T02:30:42.145Z,73.72
2022-08-12T02:33:10.689Z,73.78
2022-08-12T02:35:39.669Z,73.18
2022-08-12T02:38:10.241Z,73.18
2022-08-12T02:40:39.961Z,74.04
2022-08-12T02:43:12.215Z,73.84
2022-08-12T02:45:53.518Z,74.10
2022-08-12T02:48:30.117Z,74.19
2022-08-12T02:51:03.792Z,73.95
2022-08-12T02:53:32.258Z,74.29
2022-08-12T02:56:02.763Z,74.08
2022-08-12T02:58:33.455Z,73.82
2022-08-12T03:01:01.737Z,74.46
2022-08-12T03:03:32.541Z,74.32
2022-08-12T03:06:01.608Z,74.39
2022-08-12T03:08:33.016Z,74.87
2022-08-12T03:11:10.172Z,74.72
2022-08-12T03:13:42.431Z,75.25
2022-08-12T03:16:09.430Z,75.02
2022-08-12T03:18:36.976Z,75.09
2022-08-12T03:21:03.969Z,75.05
2022-08-12T03:23:31.459Z,75.43
2022-08-12T03:26:01.363Z,76.13
2022-08-12T03:28:51.652Z,75.99
2022-08-12T03:31:21.970Z,75.75
2022-08-12T03:34:01.573Z,76.01
2022-08-12T03:36:31.547Z,75.98
2022-08-12T03:39:35.615Z,76.49
2022-08-12T03:42:26.438Z,76.42
2022-08-12T03:45:30.278Z,76.86
2022-08-12T03:48:23.601Z,76.46
2022-08-12T03:51:11.626Z,76.76
2022-08-12T03:53:57.680Z,76.91
2022-08-12T03:56:42.478Z,77.20
2022-08-12T03:59:28.370Z,76.91
2022-08-12T04:01:58.776Z,76.15
2022-08-12T04:04:33.826Z,76.42
2022-08-12T04:07:09.109Z,76.84
2022-08-12T04:09:38.774Z,76.79
2022-08-12T04:12:26.163Z,76.56
2022-08-12T04:14:56.915Z,77.07
2022-08-12T04:17:26.817Z,76.88
2022-08-12T04:19:55.450Z,76.61
2022-08-12T04:22:25.650Z,76.85
2022-08-12T04:24:53.778Z,76.61
2022-08-12T04:27:20.492Z,76.81
2022-08-12T04:30:21.339Z,76.65
2022-08-12T04:32:42.203Z,76.33
2022-08-12T04:35:11.332Z,76.67
2022-08-12T04:37:57.925Z,76.57
2022-08-12T04:40:28.601Z,77.27
2022-08-12T04:42:56.014Z,77.30
2022-08-12T04:45:22.820Z,77.52
2022-08-12T04:47:49.751Z,77.60
2022-08-12T04:50:34.687Z,77.84
2022-08-12T04:53:09.346Z,77.70
2022-08-12T04:55:38.999Z,77.55
2022-08-12T04:58:07.305Z,77.62
2022-08-12T05:00:34.596Z,77.49
2022-08-12T05:03:01.388Z,77.91
2022-08-12T05:05:32.530Z,78.07
2022-08-12T05:08:01.824Z,78.21
2022-08-12T05:10:33.593Z,77.75
2022-08-12T05:13:07.148Z,77.81
2022-08-12T05:15:34.802Z,77.79
2022-08-12T05:18:19.165Z,77.72
2022-08-12T05:20:46.474Z,76.83
2022-08-12T05:23:19.296Z,76.96
2022-08-12T05:25:48.138Z,76.97
2022-08-12T05:28:16.043Z,77.04
2022-08-12T05:30:44.753Z,77.08
2022-08-12T05:33:15.544Z,77.22
2022-08-12T05:35:44.661Z,77.56
2022-08-12T05:38:32.052Z,77.72
2022-08-12T05:41:00.102Z,77.77
2022-08-12T05:43:26.995Z,78.01
2022-08-12T05:45:53.634Z,77.86
2022-08-12T05:48:20.627Z,77.83
2022-08-12T05:50:48.242Z,77.21
2022-08-12T05:53:14.733Z,77.94
2022-08-12T05:55:42.234Z,76.68
2022-08-12T05:58:08.852Z,77.63
2022-08-12T06:00:37.055Z,76.45
2022-08-12T06:03:04.652Z,76.47
2022-08-12T06:05:52.547Z,76.08
2022-08-12T06:08:23.961Z,75.82
2022-08-12T06:10:50.707Z,75.81
2022-08-12T06:13:25.714Z,74.71
2022-08-12T06:16:07.188Z,75.01
2022-08-12T06:18:33.744Z,75.00
2022-08-12T06:21:01.502Z,73.03
2022-08-12T06:23:29.578Z,71.72
2022-08-12T06:25:56.690Z,70.82
2022-08-12T06:28:23.506Z,71.18
2022-08-12T06:31:14.920Z,70.34
2022-08-12T06:33:59.464Z,71.22
2022-08-12T06:36:25.175Z,71.69
2022-08-12T06:38:56.798Z,70.09
2022-08-12T06:42:02.092Z,68.70
2022-08-12T06:44:28.634Z,68.00
2022-08-12T06:46:56.878Z,67.59
2022-08-12T06:49:24.900Z,67.93
2022-08-12T06:51:56.325Z,68.78
2022-08-12T06:54:31.009Z,67.49
2022-08-12T06:57:04.159Z,67.55
2022-08-12T06:59:32.244Z,66.66
2022-08-12T07:01:58.989Z,66.54
2022-08-12T07:04:36.434Z,65.52
2022-08-12T07:07:06.938Z,65.46
2022-08-12T07:10:02.841Z,65.55
2022-08-12T07:12:21.930Z,65.51
2022-08-12T07:14:51.245Z,64.22
2022-08-12T07:17:17.798Z,64.16
2022-08-12T07:19:45.507Z,63.25
2022-08-12T07:22:14.075Z,63.55
2022-08-12T07:24:40.545Z,63.76
2022-08-12T07:27:07.024Z,63.45
2022-08-12T07:29:58.114Z,62.70
2022-08-12T07:32:24.321Z,63.74
2022-08-12T07:34:50.865Z,62.67
2022-08-12T07:37:17.805Z,61.21
2022-08-12T07:39:51.027Z,60.63
2022-08-12T07:42:27.888Z,57.86
2022-08-12T07:44:55.758Z,58.66
2022-08-12T07:47:22.951Z,58.50
2022-08-12T07:50:05.349Z,57.68
2022-08-12T07:52:34.667Z,56.29
2022-08-12T07:55:01.787Z,57.65
2022-08-12T07:57:28.223Z,54.99
2022-08-12T07:59:55.683Z,54.29
2022-08-12T08:02:26.608Z,54.54
2022-08-12T08:04:57.655Z,55.10
2022-08-12T08:07:30.840Z,53.82
2022-08-12T08:10:02.173Z,53.74
2022-08-12T08:12:50.662Z,53.01
2022-08-12T08:15:17.457Z,54.12
2022-08-12T08:20:59.634Z,52.58
2022-08-12T08:23:46.463Z,52.44
2022-08-12T08:26:16.980Z,54.97
2022-08-12T08:28:43.802Z,54.58
2022-08-12T08:31:10.417Z,55.02
2022-08-12T08:34:04.168Z,55.80
2022-08-12T08:36:24.295Z,56.27
2022-08-12T08:38:57.725Z,56.25
2022-08-12T08:42:13.923Z,57.45
2022-08-12T08:44:30.263Z,57.14
2022-08-12T08:46:56.900Z,57.45
2022-08-12T08:49:23.565Z,57.73
2022-08-12T08:51:50.081Z,58.91
2022-08-12T08:54:16.865Z,59.91
2022-08-12T08:56:44.165Z,59.43
2022-08-12T08:59:11.839Z,58.39
2022-08-12T09:01:39.528Z,57.60
2022-08-12T09:05:08.572Z,57.68
2022-08-12T09:06:58.557Z,57.33
2022-08-12T09:09:28.417Z,58.33
2022-08-12T09:12:32.134Z,57.72
2022-08-12T09:14:59.098Z,57.75
2022-08-12T09:17:25.998Z,56.85
2022-08-12T09:19:58.210Z,58.68
2022-08-12T09:25:25.542Z,58.68
2022-08-12T09:28:03.968Z,60.26
2022-08-12T09:30:41.623Z,60.72
2022-08-12T09:33:18.996Z,59.78
2022-08-12T09:35:46.829Z,59.71
2022-08-12T09:38:32.114Z,61.24
2022-08-12T09:42:07.991Z,60.85
2022-08-12T09:44:05.586Z,62.69
2022-08-12T09:46:34.685Z,62.87
2022-08-12T09:49:01.397Z,61.17
2022-08-12T09:51:38.136Z,62.07
2022-08-12T09:54:33.717Z,61.42
2022-08-12T09:58:46.458Z,61.87
2022-08-12T10:00:13.901Z,61.79
2022-08-12T10:02:52.633Z,61.43
2022-08-12T10:05:22.700Z,61.00
2022-08-12T10:08:12.079Z,61.87
2022-08-12T10:10:58.518Z,59.34
2022-08-12T10:13:43.576Z,60.17
2022-08-12T10:16:39.095Z,59.85
2022-08-12T10:19:06.056Z,60.38
2022-08-12T10:21:44.959Z,57.34
2022-08-12T10:24:14.573Z,59.31
2022-08-12T10:27:14.431Z,61.62
2022-08-12T10:30:37.438Z,61.32
2022-08-12T10:32:44.782Z,61.71
2022-08-12T10:35:20.683Z,59.90
2022-08-12T10:38:34.384Z,59.80
2022-08-12T10:40:54.892Z,57.98
2022-08-12T10:43:54.150Z,59.97
2022-08-12T10:46:24.352Z,59.91
2022-08-12T10:49:06.214Z,59.74
2022-08-12T10:52:03.399Z,58.96
2022-08-12T10:54:36.280Z,59.97
2022-08-12T10:57:02.815Z,59.60
2022-08-12T10:59:58.284Z,58.24
2022-08-12T11:04:27.266Z,61.13
2022-08-12T11:07:02.070Z,60.43
2022-08-12T11:08:37.759Z,57.48
2022-08-12T11:10:39.029Z,59.05
2022-08-12T11:13:09.307Z,59.32
2022-08-12T11:16:19.087Z,60.03
2022-08-12T11:18:23.937Z,59.19
2022-08-12T11:20:52.081Z,59.97
2022-08-12T11:23:25.018Z,59.72
2022-08-12T11:26:06.000Z,60.42
2022-08-12T11:28:37.103Z,60.06
2022-08-12T11:31:06.806Z,59.85
2022-08-12T11:34:05.010Z,60.53
2022-08-12T11:36:23.049Z,60.04
2022-08-12T11:38:51.335Z,59.86
2022-08-12T11:41:31.565Z,60.35
2022-08-12T11:44:27.554Z,60.18
2022-08-12T11:46:51.191Z,60.54
2022-08-12T11:49:31.647Z,60.64
2022-08-12T11:52:00.464Z,58.28
2022-08-12T11:54:29.906Z,58.87
2022-08-12T11:57:00.250Z,59.11
2022-08-12T12:02:20.227Z,58.93
2022-08-12T12:04:52.674Z,58.34
2022-08-12T12:07:22.618Z,58.43
2022-08-12T12:09:53.439Z,57.79
2022-08-12T12:12:22.311Z,56.28
2022-08-12T12:14:54.726Z,56.67
2022-08-12T12:17:25.427Z,56.36
2022-08-12T12:19:53.377Z,56.35
2022-08-12T12:22:23.113Z,54.84
2022-08-12T12:25:13.590Z,53.75
2022-08-12T12:28:04.631Z,51.94
2022-08-12T12:30:37.279Z,53.36
2022-08-12T12:33:05.576Z,53.31
2022-08-12T12:36:19.858Z,54.84
2022-08-12T12:38:25.225Z,54.76
2022-08-12T12:40:53.069Z,54.83
2022-08-12T12:43:28.764Z,55.34
2022-08-12T12:46:07.437Z,53.05
2022-08-12T12:48:35.617Z,53.04
2022-08-12T12:51:48.313Z,52.79
2022-08-12T12:54:08.200Z,54.75
2022-08-12T12:56:42.296Z,55.64
2022-08-12T12:59:56.723Z,54.60
2022-08-12T13:01:56.206Z,52.36
2022-08-12T13:04:24.580Z,50.95
2022-08-12T13:06:52.035Z,49.81
2022-08-12T13:09:19.096Z,51.36
2022-08-12T13:11:53.037Z,51.52
2022-08-12T13:14:28.694Z,50.36
2022-08-12T13:16:57.736Z,51.02
2022-08-12T13:19:37.815Z,50.38
2022-08-12T13:22:19.350Z,50.78
2022-08-12T13:24:51.822Z,50.92
2022-08-12T13:27:21.016Z,47.76
2022-08-12T13:29:47.453Z,47.71
2022-08-12T13:32:28.094Z,49.38
2022-08-12T13:35:04.313Z,50.26
2022-08-12T13:37:54.904Z,48.54
2022-08-12T13:40:29.946Z,47.23
2022-08-12T13:43:01.653Z,47.76
2022-08-12T13:45:30.193Z,46.28
2022-08-12T13:48:03.190Z,45.68
2022-08-12T13:50:38.046Z,44.24
2022-08-12T13:53:23.726Z,43.99
2022-08-12T13:55:59.427Z,45.20
2022-08-12T13:58:28.826Z,45.33
2022-08-12T14:00:58.191Z,45.86
2022-08-12T14:03:28.201Z,45.45
2022-08-12T14:06:15.464Z,44.38
2022-08-12T14:08:43.032Z,45.81
2022-08-12T14:11:09.707Z,46.05
2022-08-12T14:14:03.230Z,45.23
2022-08-12T14:16:38.015Z,45.65
2022-08-12T14:19:22.237Z,46.16
2022-08-12T14:21:59.133Z,46.29
2022-08-12T14:24:27.360Z,47.33
2022-08-12T14:26:58.741Z,47.01
2022-08-12T14:29:55.722Z,47.21
2022-08-12T14:32:17.823Z,46.21
2022-08-12T14:34:46.841Z,45.90
2022-08-12T14:37:56.137Z,46.20
2022-08-12T14:40:00.502Z,45.79
2022-08-12T14:42:28.148Z,45.56
2022-08-12T14:44:59.934Z,45.91
2022-08-12T14:47:35.271Z,46.12
2022-08-12T14:50:58.470Z,45.12
2022-08-12T14:58:28.517Z,45.66
2022-08-12T15:01:21.359Z,46.35
2022-08-12T15:03:57.074Z,46.98
2022-08-12T15:06:43.878Z,45.97
2022-08-12T15:09:14.092Z,45.16
2022-08-12T15:11:54.984Z,43.99
2022-08-12T15:14:26.719Z,43.50
2022-08-12T15:16:56.593Z,43.79
2022-08-12T15:20:12.169Z,45.05
2022-08-12T15:22:37.407Z,44.30
2022-08-12T15:25:03.861Z,44.01
2022-08-12T15:28:04.066Z,43.66
2022-08-12T15:30:24.686Z,44.47
2022-08-12T15:32:53.628Z,43.98
2022-08-12T15:35:27.430Z,44.44
2022-08-12T15:38:10.266Z,44.10
2022-08-12T15:40:46.742Z,43.36
2022-08-12T15:43:51.170Z,42.76
2022-08-12T15:46:02.335Z,43.38
2022-08-12T15:48:32.794Z,44.50
2022-08-12T15:51:00.434Z,42.31
2022-08-12T15:53:46.547Z,42.60
2022-08-12T15:56:29.102Z,43.67
2022-08-12T15:58:59.051Z,44.67
2022-08-12T16:01:35.090Z,43.80
2022-08-12T16:04:02.851Z,43.12
2022-08-12T16:07:02.284Z,42.17
2022-08-12T16:09:56.379Z,43.40
2022-08-12T16:12:12.000Z,42.77
2022-08-12T16:14:39.119Z,43.39
2022-08-12T16:17:09.053Z,40.00
2022-08-12T16:20:03.489Z,41.56
2022-08-12T16:22:28.891Z,42.39
2022-08-12T16:24:56.543Z,42.94
2022-08-12T16:27:25.483Z,44.61
2022-08-12T16:29:57.914Z,44.54
2022-08-12T16:32:31.726Z,44.75
2022-08-12T16:35:00.627Z,43.08
2022-08-12T16:37:32.756Z,44.92
2022-08-12T16:40:15.350Z,44.54
2022-08-12T16:42:53.736Z,45.97
2022-08-12T16:46:04.009Z,47.26
2022-08-12T16:48:33.653Z,47.70
2022-08-12T16:51:09.537Z,47.10
2022-08-12T16:53:44.567Z,46.56
2022-08-12T16:56:15.325Z,46.68
2022-08-12T16:58:43.448Z,48.03
2022-08-12T17:01:14.546Z,48.79
2022-08-12T17:04:08.213Z,48.26
2022-08-12T17:06:35.592Z,48.46
2022-08-12T17:09:08.790Z,48.07
2022-08-12T17:11:44.401Z,48.05
2022-08-12T17:14:10.947Z,48.32
2022-08-12T17:16:40.258Z,49.73
2022-08-12T17:19:09.279Z,49.48
2022-08-12T17:21:41.277Z,50.59
2022-08-12T17:24:30.525Z,50.78
2022-08-12T17:26:59.358Z,50.20
2022-08-12T17:30:00.404Z,51.18
2022-08-12T17:32:14.341Z,49.54
2022-08-12T17:35:00.413Z,49.94
2022-08-12T17:37:27.549Z,50.50
2022-08-12T17:40:12.313Z,50.04
2022-08-12T17:42:43.528Z,50.19
2022-08-12T17:45:18.148Z,50.44
2022-08-12T17:48:01.000Z,52.52
2022-08-12T17:50:28.709Z,54.29
2022-08-12T17:52:59.173Z,56.21
2022-08-12T17:55:43.242Z,57.38
2022-08-12T17:58:13.991Z,57.59
2022-08-12T18:00:45.954Z,58.83
2022-08-12T18:04:05.145Z,59.87
2022-08-12T18:06:08.478Z,60.42
2022-08-12T18:08:43.351Z,61.23
2022-08-12T18:12:06.271Z,61.25
2022-08-12T18:14:27.778Z,61.49
2022-08-12T18:16:55.294Z,61.95
2022-08-12T18:19:21.710Z,62.40
2022-08-12T18:22:02.174Z,62.98
2022-08-12T18:24:30.274Z,63.81
2022-08-12T18:26:58.342Z,64.04
2022-08-12T18:29:27.128Z,64.07
2022-08-12T18:32:35.150Z,64.53
2022-08-12T18:34:57.736Z,64.69
2022-08-12T18:37:41.650Z,64.89
2022-08-12T18:40:27.363Z,65.39
2022-08-12T18:42:54.735Z,65.04
2022-08-12T18:45:31.415Z,64.91
2022-08-12T18:48:14.860Z,64.91
2022-08-12T18:50:49.950Z,65.18
2022-08-12T18:54:06.648Z,65.45
2022-08-12T18:56:06.592Z,65.73
2022-08-12T18:58:59.808Z,65.78
2022-08-12T19:02:19.903Z,65.82
2022-08-12T19:04:14.357Z,66.19
2022-08-12T19:06:41.099Z,66.68
2022-08-12T19:09:15.081Z,66.96
2022-08-12T19:12:00.905Z,67.31
2022-08-12T19:14:32.541Z,68.48
2022-08-12T19:17:03.569Z,68.46
2022-08-12T19:19:41.520Z,68.62
2022-08-12T19:22:08.265Z,68.92
2022-08-12T19:24:53.422Z,69.40
2022-08-12T19:27:21.369Z,69.86
2022-08-12T19:30:06.544Z,70.02
2022-08-12T19:32:35.535Z,69.87
2022-08-12T19:38:03.809Z,69.60
2022-08-12T19:40:34.912Z,69.06
2022-08-12T19:43:20.309Z,70.19
2022-08-12T19:45:56.654Z,70.83
2022-08-12T19:48:32.811Z,71.03
2022-08-12T19:51:08.658Z,71.07
2022-08-12T19:53:57.042Z,70.86
2022-08-12T19:56:22.585Z,70.65
2022-08-12T19:58:52.338Z,71.53
2022-08-12T20:01:21.479Z,70.92
2022-08-12T20:03:57.458Z,70.87
2022-08-12T20:06:29.304Z,70.80
2022-08-12T20:08:58.025Z,70.02
2022-08-12T20:12:13.651Z,69.54
2022-08-12T20:14:18.088Z,69.29
2022-08-12T20:16:52.450Z,69.13
2022-08-12T20:19:52.447Z,67.88
2022-08-12T20:22:15.049Z,67.37
2022-08-12T20:24:51.168Z,67.04
2022-08-12T20:27:29.165Z,65.68
2022-08-12T20:30:11.475Z,65.29
2022-08-12T20:33:00.766Z,64.70
2022-08-12T20:35:38.978Z,64.27
2022-08-12T20:38:26.804Z,63.89
2022-08-12T20:40:54.662Z,63.63
2022-08-12T20:43:24.126Z,63.88
2022-08-12T20:45:57.186Z,63.83
2022-08-12T20:48:25.353Z,63.75
2022-08-12T20:50:55.484Z,63.79
2022-08-12T20:53:33.241Z,63.70
2022-08-12T20:56:30.819Z,63.61
2022-08-12T20:58:59.817Z,63.68
2022-08-12T21:01:36.618Z,63.44
2022-08-12T21:04:32.250Z,64.15
2022-08-12T21:07:04.656Z,63.99
2022-08-12T21:09:50.220Z,63.91
2022-08-12T21:12:30.912Z,64.16
2022-08-12T21:15:23.677Z,63.94
2022-08-12T21:18:10.632Z,63.83
2022-08-12T21:20:50.598Z,63.61
2022-08-12T21:23:19.065Z,64.01
2022-08-12T21:25:46.070Z,64.49
2022-08-12T21:28:18.897Z,64.27
2022-08-12T21:31:11.245Z,64.90
2022-08-12T21:34:06.351Z,64.27
2022-08-12T21:36:34.430Z,63.83
2022-08-12T21:39:20.623Z,62.69
2022-08-12T21:41:53.112Z,62.51
2022-08-12T21:45:47.574Z,62.72
2022-08-12T21:47:22.345Z,62.64
2022-08-12T21:50:03.899Z,62.29
2022-08-12T21:52:40.408Z,63.18
2022-08-12T21:55:17.845Z,63.21
2022-08-12T21:57:51.627Z,63.61
2022-08-12T22:00:23.731Z,63.80
2022-08-12T22:03:08.914Z,64.18
2022-08-12T22:05:54.081Z,64.42
2022-08-12T22:08:22.203Z,64.33
2022-08-12T22:10:51.134Z,64.74
2022-08-12T22:14:02.244Z,64.96
2022-08-12T22:16:06.808Z,65.33
2022-08-12T22:18:33.377Z,64.99
2022-08-12T22:21:00.044Z,65.29
2022-08-12T22:23:28.401Z,65.24
2022-08-12T22:26:29.463Z,65.59
2022-08-12T22:29:19.963Z,65.61
2022-08-12T22:31:48.117Z,65.94
2022-08-12T22:34:18.232Z,66.53
2022-08-12T22:36:45.563Z,66.73
2022-08-12T22:39:15.919Z,67.00
2022-08-12T22:42:01.905Z,66.90
2022-08-12T22:44:54.927Z,67.04
2022-08-12T22:47:54.268Z,67.33
2022-08-12T22:50:28.884Z,67.29
2022-08-12T22:53:15.261Z,67.01
2022-08-12T22:56:05.747Z,66.95
2022-08-12T22:58:34.035Z,67.42
2022-08-12T23:01:02.244Z,67.43
2022-08-12T23:03:48.116Z,67.13
2022-08-12T23:06:22.072Z,67.02
2022-08-12T23:08:49.777Z,67.03
2022-08-12T23:11:17.967Z,67.44
2022-08-12T23:14:00.709Z,67.37
2022-08-12T23:16:33.496Z,67.32
2022-08-12T23:19:10.482Z,67.34
2022-08-12T23:22:05.471Z,67.60
2022-08-12T23:24:55.806Z,67.76
2022-08-12T23:27:51.659Z,68.17
2022-08-12T23:30:31.571Z,67.00
2022-08-12T23:33:01.724Z,66.65
2022-08-12T23:35:53.728Z,66.64
2022-08-12T23:38:30.136Z,66.73
2022-08-12T23:41:01.199Z,66.73
2022-08-12T23:43:39.095Z,66.54
2022-08-12T23:46:08.716Z,65.77
2022-08-12T23:48:37.363Z,65.86
2022-08-12T23:51:22.040Z,65.43
2022-08-12T23:54:07.092Z,65.83
2022-08-12T23:56:35.377Z,65.49
2022-08-12T23:59:06.853Z,65.24
